Time;durP1;ratioP1;P1;durP2;ratioP2;P2;SDS_P1;SDS_P2;PMS_P1;PMS_P2;Temp;Humidity;BMP_temperature;BMP_pressure;BME280_temperature;BME280_humidity;BME280_pressure;Samples;Min_cycle;Max_cycle;Signal;HPM_P1;HPM_P2
2023/02/07 00:00:15;;;;;;;;;;;29.70;99.90;;;;;;5048983;28;19963;-71
2023/02/07 00:02:42;;;;;;;;;;;29.80;99.90;;;;;;5049798;28;19913;-61
2023/02/07 00:05:08;;;;;;;;;;;30.00;99.90;;;;;;5050242;28;19955;-75
2023/02/07 00:07:35;;;;;;;;;;;30.20;99.60;;;;;;5049946;28;20011;-63
2023/02/07 00:10:01;;;;;;;;;;;30.10;99.90;;;;;;5048567;28;20365;-73
2023/02/07 00:12:27;;;;;;;;;;;30.10;99.90;;;;;;5049845;28;20054;-66
2023/02/07 00:14:54;;;;;;;;;;;29.80;99.90;;;;;;5049652;28;19919;-72
2023/02/07 00:17:20;;;;;;;;;;;30.30;99.90;;;;;;5049879;28;19977;-73
2023/02/07 00:19:47;;;;;;;;;;;30.10;99.90;;;;;;5049628;28;19920;-72
2023/02/07 00:22:13;;;;;;;;;;;30.00;99.90;;;;;;5048629;28;20340;-73
2023/02/07 00:24:39;;;;;;;;;;;30.60;99.90;;;;;;5050306;28;19908;-73
2023/02/07 00:27:06;;;;;;;;;;;30.70;99.20;;;;;;5047533;28;19912;-71
2023/02/07 00:29:33;;;;;;;;;;;30.60;99.80;;;;;;5046450;28;19919;-62
2023/02/07 00:31:59;;;;;;;;;;;30.70;99.80;;;;;;5048026;28;19908;-73
2023/02/07 00:34:25;;;;;;;;;;;30.50;98.50;;;;;;5047909;28;19909;-66
2023/02/07 00:36:52;;;;;;;;;;;30.10;99.00;;;;;;5046248;28;20353;-71
2023/02/07 00:39:18;;;;;;;;;;;29.80;99.40;;;;;;5046600;28;19927;-61
2023/02/07 00:41:45;;;;;;;;;;;30.00;98.90;;;;;;5046051;28;20011;-65
2023/02/07 00:44:11;;;;;;;;;;;30.70;98.70;;;;;;5046786;28;19908;-64
2023/02/07 00:46:38;;;;;;;;;;;30.80;98.80;;;;;;5046402;28;20013;-63
2023/02/07 00:49:05;;;;;;;;;;;31.10;99.20;;;;;;5047223;28;19920;-61
2023/02/07 00:51:32;;;;;;;;;;;31.60;97.90;;;;;;5046324;28;19917;-64
2023/02/07 00:53:58;;;;;;;;;;;31.70;97.50;;;;;;5046752;28;19912;-73
2023/02/07 00:56:28;;;;;;;;;;;31.60;97.30;;;;;;4348018;28;10000561;-65
2023/02/07 00:58:54;;;;;;;;;;;31.40;97.00;;;;;;5041522;28;19970;-60
2023/02/07 01:01:21;;;;;;;;;;;31.10;97.40;;;;;;5042794;28;19913;-64
2023/02/07 01:03:47;;;;;;;;;;;31.10;97.80;;;;;;5042808;28;19924;-65
2023/02/07 01:06:14;;;;;;;;;;;31.40;98.20;;;;;;5042375;28;20474;-64
2023/02/07 01:08:40;;;;;;;;;;;32.00;98.10;;;;;;5042198;28;19916;-72
2023/02/07 01:11:08;;;;;;;;;;;32.40;97.10;;;;;;5042715;28;19948;-60
2023/02/07 01:13:35;;;;;;;;;;;32.20;97.30;;;;;;5043508;28;20254;-60
2023/02/07 01:16:01;;;;;;;;;;;32.10;96.80;;;;;;5042399;28;19923;-60
2023/02/07 01:18:28;;;;;;;;;;;32.00;97.30;;;;;;5042706;28;19920;-61
2023/02/07 01:20:54;;;;;;;;;;;31.90;96.80;;;;;;5024382;28;20388;-73
2023/02/07 01:23:21;;;;;;;;;;;32.10;96.80;;;;;;5042900;28;19908;-61
2023/02/07 01:25:47;;;;;;;;;;;32.30;96.50;;;;;;5042665;28;19958;-63
2023/02/07 01:28:14;;;;;;;;;;;32.50;96.50;;;;;;5042819;28;20276;-72
2023/02/07 01:30:43;;;;;;;;;;;32.60;96.80;;;;;;5043305;28;20274;-64
2023/02/07 01:33:11;;;;;;;;;;;32.40;95.80;;;;;;5042549;28;19942;-61
2023/02/07 01:35:37;;;;;;;;;;;31.90;96.50;;;;;;5038501;28;19928;-73
2023/02/07 01:38:03;;;;;;;;;;;31.80;97.10;;;;;;5043164;28;19979;-64
2023/02/07 01:40:30;;;;;;;;;;;31.60;97.50;;;;;;5042604;28;20000;-60
2023/02/07 01:42:57;;;;;;;;;;;31.30;97.80;;;;;;5042297;28;19987;-71
2023/02/07 01:45:37;;;;;;;;;;;31.10;98.10;;;;;;5042795;28;19931;-63
2023/02/07 01:48:09;;;;;;;;;;;31.10;98.20;;;;;;5043058;28;19928;-72
2023/02/07 01:50:36;;;;;;;;;;;31.20;98.30;;;;;;5042689;28;20640;-61
2023/02/07 01:53:05;;;;;;;;;;;31.30;97.10;;;;;;5042612;28;19967;-61
2023/02/07 01:55:33;;;;;;;;;;;31.30;97.90;;;;;;5042384;28;19915;-64
2023/02/07 01:58:03;;;;;;;;;;;31.10;98.30;;;;;;5041825;28;20436;-65
2023/02/07 02:00:30;;;;;;;;;;;30.80;99.00;;;;;;5042348;28;19921;-64
2023/02/07 02:02:56;;;;;;;;;;;30.80;98.60;;;;;;5042404;28;19990;-64
2023/02/07 02:05:23;;;;;;;;;;;31.40;99.00;;;;;;5042978;28;19999;-73
2023/02/07 02:07:49;;;;;;;;;;;31.90;97.50;;;;;;5042231;28;19919;-64
2023/02/07 02:10:17;;;;;;;;;;;32.00;98.00;;;;;;5041963;28;19935;-73
2023/02/07 02:12:54;;;;;;;;;;;32.40;97.90;;;;;;5043060;28;19912;-64
2023/02/07 02:15:35;;;;;;;;;;;33.10;96.70;;;;;;5043056;28;19912;-73
2023/02/07 02:18:07;;;;;;;;;;;32.80;96.70;;;;;;5025096;28;19909;-73
2023/02/07 02:20:37;;;;;;;;;;;32.10;96.60;;;;;;5042533;28;20427;-61
2023/02/07 02:23:18;;;;;;;;;;;31.90;96.90;;;;;;5024230;28;20004;-66
2023/02/07 02:26:01;;;;;;;;;;;32.20;96.60;;;;;;5040715;28;19916;-66
2023/02/07 02:28:31;;;;;;;;;;;32.40;95.90;;;;;;5040752;28;19998;-73
2023/02/07 02:31:16;;;;;;;;;;;32.00;95.90;;;;;;5042177;28;19917;-64
2023/02/07 02:33:48;;;;;;;;;;;31.80;95.60;;;;;;5041998;28;19913;-73
2023/02/07 02:36:17;;;;;;;;;;;32.10;95.60;;;;;;5041955;28;20075;-61
2023/02/07 02:39:00;;;;;;;;;;;32.70;95.70;;;;;;5042028;28;19912;-63
2023/02/07 02:41:29;;;;;;;;;;;32.70;95.10;;;;;;5040746;28;20250;-63
2023/02/07 02:44:02;;;;;;;;;;;32.70;95.20;;;;;;5040843;28;20412;-62
2023/02/07 02:46:35;;;;;;;;;;;32.50;95.90;;;;;;5044168;28;19930;-60
2023/02/07 02:49:02;;;;;;;;;;;33.00;95.20;;;;;;5046092;28;20331;-59
2023/02/07 02:51:29;;;;;;;;;;;34.00;95.50;;;;;;5045967;28;19904;-63
2023/02/07 02:53:57;;;;;;;;;;;34.20;94.00;;;;;;5044962;28;19916;-65
2023/02/07 02:56:26;;;;;;;;;;;34.30;93.70;;;;;;5043963;28;20356;-63
2023/02/07 02:59:03;;;;;;;;;;;34.70;94.20;;;;;;5044640;28;20304;-60
2023/02/07 03:01:54;;;;;;;;;;;35.10;93.30;;;;;;5045339;28;19912;-64
2023/02/07 03:04:39;;;;;;;;;;;35.60;92.50;;;;;;5045378;28;19905;-61
2023/02/07 03:07:12;;;;;;;;;;;35.70;92.30;;;;;;5044966;28;19995;-64
2023/02/07 03:09:55;;;;;;;;;;;35.10;92.10;;;;;;5045317;28;20013;-65
2023/02/07 03:12:24;;;;;;;;;;;35.10;92.40;;;;;;5044999;28;19943;-61
2023/02/07 03:15:02;;;;;;;;;;;34.60;93.30;;;;;;5045193;28;19924;-63
2023/02/07 03:17:31;;;;;;;;;;;34.00;93.20;;;;;;5044819;28;20011;-61
2023/02/07 03:20:04;;;;;;;;;;;33.80;93.30;;;;;;5044890;28;19939;-62
2023/02/07 03:22:32;;;;;;;;;;;33.20;94.10;;;;;;5045280;28;19966;-68
2023/02/07 03:25:00;;;;;;;;;;;33.10;94.80;;;;;;5044430;28;19913;-63
2023/02/07 03:27:28;;;;;;;;;;;32.70;94.70;;;;;;5044192;28;20381;-61
2023/02/07 03:29:56;;;;;;;;;;;32.50;95.10;;;;;;5044348;28;19912;-63
2023/02/07 03:32:24;;;;;;;;;;;32.10;95.10;;;;;;5044129;28;20369;-61
2023/02/07 03:35:00;;;;;;;;;;;31.50;95.60;;;;;;5044930;28;19924;-62
2023/02/07 03:37:39;;;;;;;;;;;31.50;96.20;;;;;;5044132;28;20596;-60
2023/02/07 03:40:06;;;;;;;;;;;31.50;95.80;;;;;;5044042;28;20003;-59
2023/02/07 03:42:45;;;;;;;;;;;31.40;95.60;;;;;;5042069;28;19920;-60
2023/02/07 03:45:14;;;;;;;;;;;31.10;96.50;;;;;;5044499;28;19920;-60
2023/02/07 03:47:40;;;;;;;;;;;31.10;96.00;;;;;;5042716;28;19924;-62
2023/02/07 03:50:07;;;;;;;;;;;32.00;95.10;;;;;;5043553;28;19917;-60
2023/02/07 03:52:33;;;;;;;;;;;32.60;94.50;;;;;;5044691;28;19952;-61
2023/02/07 03:55:00;;;;;;;;;;;32.40;94.70;;;;;;5044280;28;19913;-60
2023/02/07 03:57:26;;;;;;;;;;;32.10;95.30;;;;;;5043809;28;19963;-60
2023/02/07 03:59:52;;;;;;;;;;;31.80;94.90;;;;;;5044000;28;19921;-60
2023/02/07 04:02:19;;;;;;;;;;;31.60;95.20;;;;;;5044843;28;19971;-62
2023/02/07 04:04:45;;;;;;;;;;;32.20;94.90;;;;;;5046017;28;20019;-60
2023/02/07 04:07:12;;;;;;;;;;;32.20;94.70;;;;;;5045933;28;19913;-62
2023/02/07 04:09:38;;;;;;;;;;;31.90;94.60;;;;;;5045218;28;19919;-59
2023/02/07 04:12:04;;;;;;;;;;;32.50;95.00;;;;;;5043905;28;20342;-60
2023/02/07 04:14:31;;;;;;;;;;;33.50;94.10;;;;;;5044036;28;19919;-59
2023/02/07 04:16:57;;;;;;;;;;;33.90;94.30;;;;;;5043440;28;20040;-60
2023/02/07 04:19:24;;;;;;;;;;;34.00;93.30;;;;;;5042865;28;19990;-66
2023/02/07 04:21:50;;;;;;;;;;;33.30;93.40;;;;;;5042273;28;19928;-65
2023/02/07 04:24:16;;;;;;;;;;;32.70;94.10;;;;;;5043916;28;19908;-60
2023/02/07 04:26:43;;;;;;;;;;;32.20;94.20;;;;;;5041738;28;19917;-59
2023/02/07 04:29:09;;;;;;;;;;;31.70;94.70;;;;;;5042534;28;20042;-61
2023/02/07 04:31:36;;;;;;;;;;;31.40;95.50;;;;;;5042859;28;20026;-60
2023/02/07 04:34:03;;;;;;;;;;;31.00;96.20;;;;;;5038115;28;20067;-62
2023/02/07 04:36:30;;;;;;;;;;;30.70;96.60;;;;;;5039242;28;19917;-61
2023/02/07 04:38:56;;;;;;;;;;;30.20;97.10;;;;;;5041864;28;19919;-61
2023/02/07 04:41:23;;;;;;;;;;;30.10;97.40;;;;;;5039547;28;19913;-61
2023/02/07 04:43:50;;;;;;;;;;;30.70;97.20;;;;;;5040739;28;19951;-61
2023/02/07 04:46:16;;;;;;;;;;;32.00;95.90;;;;;;5038110;28;19921;-61
2023/02/07 04:48:42;;;;;;;;;;;33.30;94.30;;;;;;5040191;28;20007;-64
2023/02/07 04:51:09;;;;;;;;;;;33.10;94.20;;;;;;5041396;28;19916;-64
2023/02/07 04:53:35;;;;;;;;;;;33.40;94.10;;;;;;5041706;28;20035;-61
2023/02/07 04:56:01;;;;;;;;;;;33.30;94.90;;;;;;5038544;28;19917;-60
2023/02/07 04:58:28;;;;;;;;;;;33.90;93.90;;;;;;5039593;28;19916;-61
2023/02/07 05:00:54;;;;;;;;;;;34.50;93.80;;;;;;5041795;28;19916;-64
2023/02/07 05:03:21;;;;;;;;;;;35.20;92.70;;;;;;5040188;28;20068;-64
2023/02/07 05:05:47;;;;;;;;;;;35.70;92.30;;;;;;5038140;28;19966;-59
2023/02/07 05:08:13;;;;;;;;;;;35.60;91.60;;;;;;5037627;28;21034;-62
2023/02/07 05:10:40;;;;;;;;;;;35.40;92.40;;;;;;5040132;28;19922;-60
2023/02/07 05:13:06;;;;;;;;;;;36.00;91.90;;;;;;5040077;28;20035;-61
2023/02/07 05:15:33;;;;;;;;;;;36.20;90.90;;;;;;5041067;28;19912;-60
2023/02/07 05:18:00;;;;;;;;;;;36.10;90.50;;;;;;5039081;28;19912;-61
2023/02/07 05:20:26;;;;;;;;;;;35.20;91.20;;;;;;5038990;28;20396;-59
2023/02/07 05:22:52;;;;;;;;;;;34.40;91.80;;;;;;5038326;28;19912;-59
2023/02/07 05:25:19;;;;;;;;;;;33.90;92.30;;;;;;5034569;28;19989;-61
2023/02/07 05:27:45;;;;;;;;;;;33.00;92.60;;;;;;5020715;28;19916;-61
2023/02/07 05:30:12;;;;;;;;;;;32.40;93.10;;;;;;5040010;28;20428;-59
2023/02/07 05:35:23;;;;;;;;;;;31.10;94.10;;;;;;5040459;28;20463;-62
2023/02/07 05:37:49;;;;;;;;;;;30.40;94.60;;;;;;5040394;28;20196;-60
2023/02/07 05:40:16;;;;;;;;;;;29.80;95.10;;;;;;5039921;28;19924;-63
2023/02/07 05:42:42;;;;;;;;;;;29.40;95.30;;;;;;5041821;28;19951;-60
2023/02/07 05:45:09;;;;;;;;;;;29.00;95.80;;;;;;5040212;28;20308;-59
2023/02/07 05:47:35;;;;;;;;;;;28.80;95.90;;;;;;5041193;28;20427;-61
2023/02/07 05:50:01;;;;;;;;;;;28.80;95.90;;;;;;5039090;28;19912;-60
2023/02/07 05:52:28;;;;;;;;;;;28.70;96.00;;;;;;5017395;28;20301;-60
2023/02/07 05:54:54;;;;;;;;;;;28.60;96.40;;;;;;5039964;28;19917;-64
2023/02/07 05:57:21;;;;;;;;;;;28.70;96.70;;;;;;5039529;28;19920;-59
2023/02/07 05:59:47;;;;;;;;;;;28.70;96.60;;;;;;5039118;28;20405;-60
2023/02/07 06:02:13;;;;;;;;;;;28.50;96.90;;;;;;5037691;28;20473;-64
2023/02/07 06:04:40;;;;;;;;;;;28.40;96.90;;;;;;5039433;28;20055;-61
2023/02/07 06:07:06;;;;;;;;;;;28.00;97.30;;;;;;5038136;28;19994;-58
2023/02/07 06:09:33;;;;;;;;;;;28.10;97.90;;;;;;5039685;28;19912;-59
2023/02/07 06:11:59;;;;;;;;;;;28.40;97.30;;;;;;5039392;28;20051;-59
2023/02/07 06:14:25;;;;;;;;;;;28.30;97.40;;;;;;5040350;28;20144;-61
2023/02/07 06:16:52;;;;;;;;;;;28.30;97.10;;;;;;5039957;28;19979;-58
2023/02/07 06:19:19;;;;;;;;;;;28.60;97.10;;;;;;5039039;28;19967;-65
2023/02/07 06:21:45;;;;;;;;;;;29.20;96.50;;;;;;5043468;28;20274;-64
2023/02/07 06:24:11;;;;;;;;;;;29.20;96.30;;;;;;5045405;28;19967;-60
2023/02/07 06:26:38;;;;;;;;;;;29.00;96.20;;;;;;5045838;28;19919;-64
2023/02/07 06:29:04;;;;;;;;;;;28.90;96.80;;;;;;5043990;28;19916;-60
2023/02/07 06:31:31;;;;;;;;;;;28.60;96.30;;;;;;5040305;28;19967;-61
2023/02/07 06:33:57;;;;;;;;;;;28.30;96.80;;;;;;5043653;28;19920;-63
2023/02/07 06:36:23;;;;;;;;;;;28.10;96.80;;;;;;5040190;28;19934;-61
2023/02/07 06:38:53;;;;;;;;;;;28.00;97.30;;;;;;5041116;28;19920;-64
2023/02/07 06:41:19;;;;;;;;;;;28.00;97.40;;;;;;5042424;28;19913;-63
2023/02/07 06:43:46;;;;;;;;;;;27.90;97.20;;;;;;5040720;28;19932;-60
2023/02/07 06:46:12;;;;;;;;;;;27.80;97.40;;;;;;5041132;28;20376;-61
2023/02/07 06:48:39;;;;;;;;;;;27.80;97.80;;;;;;5041885;28;20407;-62
2023/02/07 06:51:05;;;;;;;;;;;27.70;97.80;;;;;;5041797;28;19999;-60
2023/02/07 06:53:32;;;;;;;;;;;27.60;97.20;;;;;;5040910;28;19982;-60
2023/02/07 06:55:58;;;;;;;;;;;27.30;97.40;;;;;;5041551;28;20241;-60
2023/02/07 06:58:24;;;;;;;;;;;27.20;97.50;;;;;;5042156;28;19921;-60
2023/02/07 07:00:51;;;;;;;;;;;27.00;98.00;;;;;;5042106;28;20233;-60
2023/02/07 07:03:17;;;;;;;;;;;27.00;98.10;;;;;;5041593;28;19994;-60
2023/02/07 07:05:44;;;;;;;;;;;27.00;97.70;;;;;;5040294;28;19913;-61
2023/02/07 07:08:11;;;;;;;;;;;26.90;98.50;;;;;;5041282;28;19912;-59
2023/02/07 07:10:37;;;;;;;;;;;26.90;98.80;;;;;;5041416;28;19917;-59
2023/02/07 07:13:03;;;;;;;;;;;26.90;98.80;;;;;;5041020;28;19966;-60
2023/02/07 07:15:30;;;;;;;;;;;26.90;99.00;;;;;;5040430;28;19913;-63
2023/02/07 07:17:56;;;;;;;;;;;26.90;99.60;;;;;;5041591;28;19917;-65
2023/02/07 07:20:22;;;;;;;;;;;26.90;99.20;;;;;;5041204;28;20042;-64
2023/02/07 07:22:52;;;;;;;;;;;26.80;99.40;;;;;;5042528;28;19909;-60
2023/02/07 07:25:18;;;;;;;;;;;26.70;99.60;;;;;;5045561;28;20314;-64
2023/02/07 07:27:45;;;;;;;;;;;26.60;99.90;;;;;;5043528;28;20338;-65
2023/02/07 07:30:11;;;;;;;;;;;26.60;99.90;;;;;;5037257;28;19943;-61
2023/02/07 07:32:38;;;;;;;;;;;26.60;99.90;;;;;;5041918;28;19913;-62
2023/02/07 07:35:04;;;;;;;;;;;26.50;99.90;;;;;;5047072;28;20316;-60
2023/02/07 07:37:31;;;;;;;;;;;26.50;99.90;;;;;;5040906;28;19920;-63
2023/02/07 07:39:57;;;;;;;;;;;26.40;99.90;;;;;;5042248;28;19921;-65
2023/02/07 07:42:23;;;;;;;;;;;26.30;99.90;;;;;;5039448;28;19917;-61
2023/02/07 07:44:50;;;;;;;;;;;26.30;99.90;;;;;;5040441;28;20394;-62
2023/02/07 07:47:17;;;;;;;;;;;26.20;99.90;;;;;;5039819;28;19908;-63
2023/02/07 07:49:44;;;;;;;;;;;26.20;99.90;;;;;;5039601;28;20270;-64
2023/02/07 07:52:11;;;;;;;;;;;26.10;99.90;;;;;;5021077;28;19924;-64
2023/02/07 07:54:37;;;;;;;;;;;26.10;99.90;;;;;;5039834;28;20389;-63
2023/02/07 07:57:03;;;;;;;;;;;26.00;99.90;;;;;;5039516;28;19962;-63
2023/02/07 07:59:30;;;;;;;;;;;26.00;99.90;;;;;;5038467;28;20467;-63
2023/02/07 08:01:56;;;;;;;;;;;26.00;99.90;;;;;;5040778;28;19920;-61
2023/02/07 08:04:22;;;;;;;;;;;26.10;99.90;;;;;;5039930;28;20154;-63
2023/02/07 08:06:49;;;;;;;;;;;26.00;99.90;;;;;;5038660;28;20384;-62
2023/02/07 08:09:15;;;;;;;;;;;26.00;99.90;;;;;;5039787;28;20277;-63
2023/02/07 08:11:42;;;;;;;;;;;26.00;99.90;;;;;;5017334;28;20455;-65
2023/02/07 08:14:08;;;;;;;;;;;26.00;99.90;;;;;;5037280;28;20114;-63
2023/02/07 08:16:34;;;;;;;;;;;26.00;99.90;;;;;;5036532;28;19927;-60
2023/02/07 08:19:01;;;;;;;;;;;26.00;99.90;;;;;;5037111;28;20354;-64
2023/02/07 08:21:27;;;;;;;;;;;26.00;99.90;;;;;;5037807;28;19923;-60
2023/02/07 08:23:56;;;;;;;;;;;25.90;99.90;;;;;;5039291;28;19959;-61
2023/02/07 08:26:23;;;;;;;;;;;25.90;99.90;;;;;;5037179;28;20354;-61
2023/02/07 08:28:51;;;;;;;;;;;25.70;99.90;;;;;;5033780;28;19913;-67
2023/02/07 08:31:18;;;;;;;;;;;25.60;99.90;;;;;;5035821;28;19916;-63
2023/02/07 08:33:44;;;;;;;;;;;25.50;99.90;;;;;;5036088;28;20129;-62
2023/02/07 08:36:11;;;;;;;;;;;25.40;99.90;;;;;;5035089;28;19912;-61
2023/02/07 08:38:37;;;;;;;;;;;25.40;99.90;;;;;;5039033;28;20392;-62
2023/02/07 08:41:04;;;;;;;;;;;25.30;99.90;;;;;;5036022;28;20301;-59
2023/02/07 08:43:31;;;;;;;;;;;25.30;99.90;;;;;;5022040;28;20400;-60
2023/02/07 08:45:59;;;;;;;;;;;25.20;99.90;;;;;;5039923;28;19916;-60
2023/02/07 08:48:26;;;;;;;;;;;25.10;99.90;;;;;;5037338;28;20197;-64
2023/02/07 08:50:52;;;;;;;;;;;25.00;99.90;;;;;;5037513;28;19920;-60
2023/02/07 08:53:18;;;;;;;;;;;25.00;99.90;;;;;;5038067;28;19924;-61
2023/02/07 08:55:45;;;;;;;;;;;25.00;99.90;;;;;;5038408;28;20054;-65
2023/02/07 08:58:14;;;;;;;;;;;24.90;99.90;;;;;;5038487;28;20388;-62
2023/02/07 09:00:42;;;;;;;;;;;24.90;99.90;;;;;;5035139;28;19917;-65
2023/02/07 09:03:09;;;;;;;;;;;24.80;99.90;;;;;;5036256;28;20463;-60
2023/02/07 09:05:35;;;;;;;;;;;24.70;99.90;;;;;;5037517;28;19912;-66
2023/02/07 09:08:02;;;;;;;;;;;24.90;99.90;;;;;;5039141;28;20348;-62
2023/02/07 09:10:29;;;;;;;;;;;24.80;99.90;;;;;;5039399;28;20219;-66
2023/02/07 09:12:55;;;;;;;;;;;24.70;99.90;;;;;;5031736;28;19912;-61
2023/02/07 09:15:21;;;;;;;;;;;24.60;99.90;;;;;;5038824;28;19916;-65
2023/02/07 09:17:48;;;;;;;;;;;24.60;99.90;;;;;;5036085;28;20373;-60
2023/02/07 09:20:14;;;;;;;;;;;24.70;99.90;;;;;;5032776;28;20377;-60
2023/02/07 09:25:25;;;;;;;;;;;24.70;99.90;;;;;;5031696;28;20336;-63
2023/02/07 09:27:51;;;;;;;;;;;24.50;99.90;;;;;;5038444;28;19923;-60
2023/02/07 09:30:18;;;;;;;;;;;24.50;99.90;;;;;;5036615;28;19972;-62
2023/02/07 09:32:44;;;;;;;;;;;24.40;99.90;;;;;;5034419;28;19917;-64
2023/02/07 09:35:11;;;;;;;;;;;24.60;99.90;;;;;;5037128;28;19919;-60
2023/02/07 09:37:46;;;;;;;;;;;24.50;99.90;;;;;;5031156;28;19919;-60
2023/02/07 09:40:17;;;;;;;;;;;24.40;99.90;;;;;;5037713;28;19916;-62
2023/02/07 09:42:53;;;;;;;;;;;24.40;99.90;;;;;;5036458;28;19955;-59
2023/02/07 09:45:20;;;;;;;;;;;24.40;99.90;;;;;;5036241;28;20220;-60
2023/02/07 09:47:49;;;;;;;;;;;24.30;99.90;;;;;;5034985;28;19913;-62
2023/02/07 09:50:27;;;;;;;;;;;24.30;99.90;;;;;;5037249;28;19924;-62
2023/02/07 09:53:00;;;;;;;;;;;24.30;99.90;;;;;;5037648;28;20282;-62
2023/02/07 09:55:39;;;;;;;;;;;24.20;99.90;;;;;;5036960;28;19917;-60
2023/02/07 09:58:12;;;;;;;;;;;24.10;99.90;;;;;;5079226;22;20274;-61
2023/02/07 10:00:39;;;;;;;;;;;24.20;99.90;;;;;;5035784;28;19924;-59
2023/02/07 10:03:19;;;;;;;;;;;24.20;99.90;;;;;;5038168;28;19960;-62
2023/02/07 10:05:51;;;;;;;;;;;24.20;99.90;;;;;;5039475;28;20213;-62
2023/02/07 10:08:18;;;;;;;;;;;24.10;99.90;;;;;;5038552;28;19952;-59
2023/02/07 10:10:47;;;;;;;;;;;23.90;99.90;;;;;;5035198;28;20285;-62
2023/02/07 10:13:20;;;;;;;;;;;23.90;99.90;;;;;;5036702;28;19916;-65
2023/02/07 10:16:06;;;;;;;;;;;23.90;99.90;;;;;;5034470;28;19913;-64
2023/02/07 10:18:35;;;;;;;;;;;24.00;99.90;;;;;;5034972;28;19912;-62
2023/02/07 10:21:02;;;;;;;;;;;23.90;99.90;;;;;;5015633;28;19940;-59
2023/02/07 10:23:37;;;;;;;;;;;23.80;99.90;;;;;;5014082;28;19912;-59
2023/02/07 10:26:10;;;;;;;;;;;23.70;99.90;;;;;;5012735;28;20606;-59
2023/02/07 10:28:45;;;;;;;;;;;23.80;99.90;;;;;;5011039;28;20232;-58
2023/02/07 10:31:15;;;;;;;;;;;23.70;99.90;;;;;;5008927;28;19923;-64
2023/02/07 10:33:46;;;;;;;;;;;23.60;99.90;;;;;;5006090;28;19913;-59
2023/02/07 10:36:13;;;;;;;;;;;23.50;99.90;;;;;;5013171;28;19923;-59
2023/02/07 10:38:53;;;;;;;;;;;23.50;99.90;;;;;;5015579;28;20380;-65
2023/02/07 10:41:25;;;;;;;;;;;23.50;99.90;;;;;;5015926;28;19957;-59
2023/02/07 10:43:51;;;;;;;;;;;23.30;99.90;;;;;;5013155;28;19952;-58
2023/02/07 10:46:21;;;;;;;;;;;23.50;99.90;;;;;;5014275;28;19916;-64
2023/02/07 10:48:48;;;;;;;;;;;23.30;99.90;;;;;;5015291;28;19914;-66
2023/02/07 10:51:26;;;;;;;;;;;23.20;99.90;;;;;;5014425;28;19917;-59
2023/02/07 10:54:08;;;;;;;;;;;23.20;99.90;;;;;;5015470;28;20360;-65
2023/02/07 10:56:45;;;;;;;;;;;23.20;99.90;;;;;;5018833;28;19924;-64
2023/02/07 10:59:30;;;;;;;;;;;23.10;99.90;;;;;;5014559;28;19921;-59
2023/02/07 11:01:56;;;;;;;;;;;23.20;99.90;;;;;;5018652;28;20000;-65
2023/02/07 11:04:32;;;;;;;;;;;23.10;99.90;;;;;;5016198;28;19968;-58
2023/02/07 11:07:00;;;;;;;;;;;23.00;99.90;;;;;;5012541;28;19913;-65
2023/02/07 11:09:27;;;;;;;;;;;23.10;99.90;;;;;;5021498;28;19992;-59
2023/02/07 11:11:54;;;;;;;;;;;23.00;99.90;;;;;;5014355;28;19924;-64
2023/02/07 11:14:27;;;;;;;;;;;22.90;99.90;;;;;;5020094;28;20309;-65
2023/02/07 11:16:57;;;;;;;;;;;23.00;99.90;;;;;;5021081;28;19913;-60
2023/02/07 11:19:25;;;;;;;;;;;22.90;99.90;;;;;;5021724;28;19916;-66
2023/02/07 11:22:16;;;;;;;;;;;22.90;99.90;;;;;;5025281;28;20039;-65
2023/02/07 11:24:43;;;;;;;;;;;22.90;99.90;;;;;;5026076;28;19920;-59
2023/02/07 11:27:09;;;;;;;;;;;22.80;99.90;;;;;;5024191;28;20353;-59
2023/02/07 11:29:39;;;;;;;;;;;22.70;99.90;;;;;;5025087;28;20028;-59
2023/02/07 11:32:05;;;;;;;;;;;22.70;99.90;;;;;;5023657;28;19913;-64
2023/02/07 11:34:41;;;;;;;;;;;22.80;99.90;;;;;;5025758;28;19917;-60
2023/02/07 11:37:10;;;;;;;;;;;22.80;99.90;;;;;;5021917;28;19909;-65
2023/02/07 11:39:42;;;;;;;;;;;22.90;99.90;;;;;;5027823;28;19947;-59
2023/02/07 11:42:13;;;;;;;;;;;22.90;99.90;;;;;;5023838;28;20377;-65
2023/02/07 11:44:41;;;;;;;;;;;22.90;99.90;;;;;;5028401;28;20461;-60
2023/02/07 11:47:12;;;;;;;;;;;23.00;99.90;;;;;;5023132;28;19936;-65
2023/02/07 11:49:41;;;;;;;;;;;22.90;99.90;;;;;;5023954;28;19914;-64
2023/02/07 11:52:08;;;;;;;;;;;22.90;99.90;;;;;;5029234;28;19912;-59
2023/02/07 11:54:35;;;;;;;;;;;22.90;99.90;;;;;;5029721;28;20320;-60
2023/02/07 11:57:06;;;;;;;;;;;22.90;99.90;;;;;;5028524;28;19952;-65
2023/02/07 11:59:32;;;;;;;;;;;22.80;99.90;;;;;;5028848;28;19921;-64
2023/02/07 12:02:11;;;;;;;;;;;22.80;99.90;;;;;;5027195;28;20011;-58
2023/02/07 12:04:41;;;;;;;;;;;23.00;99.90;;;;;;5029082;28;20039;-59
2023/02/07 12:07:08;;;;;;;;;;;22.80;99.90;;;;;;5025846;28;19913;-58
2023/02/07 12:09:50;;;;;;;;;;;22.70;99.90;;;;;;5028891;28;19921;-59
2023/02/07 12:12:21;;;;;;;;;;;22.50;99.90;;;;;;5024513;28;19921;-59
2023/02/07 12:14:47;;;;;;;;;;;22.40;99.90;;;;;;5023789;28;20296;-65
2023/02/07 12:17:17;;;;;;;;;;;22.30;99.90;;;;;;5028110;28;20374;-59
2023/02/07 12:20:09;;;;;;;;;;;22.20;99.90;;;;;;5027536;28;19924;-59
2023/02/07 12:22:51;;;;;;;;;;;22.20;99.90;;;;;;5024265;28;19913;-59
2023/02/07 12:25:22;;;;;;;;;;;22.20;99.90;;;;;;5028301;28;19916;-60
2023/02/07 12:27:51;;;;;;;;;;;22.10;99.90;;;;;;5028237;28;19913;-59
2023/02/07 12:30:17;;;;;;;;;;;22.00;99.90;;;;;;5026935;28;19909;-65
2023/02/07 12:32:43;;;;;;;;;;;22.00;99.90;;;;;;5027926;28;19917;-59
2023/02/07 12:35:14;;;;;;;;;;;22.00;99.90;;;;;;5026066;28;19966;-64
2023/02/07 12:37:48;;;;;;;;;;;22.00;99.90;;;;;;5028259;28;19974;-59
2023/02/07 12:40:20;;;;;;;;;;;22.00;99.90;;;;;;5028055;28;19936;-65
2023/02/07 12:42:58;;;;;;;;;;;22.10;99.90;;;;;;5028048;28;19913;-59
2023/02/07 12:45:34;;;;;;;;;;;22.20;99.90;;;;;;5028202;28;19917;-59
2023/02/07 12:48:00;;;;;;;;;;;22.20;99.90;;;;;;5027923;28;20368;-64
2023/02/07 12:50:36;;;;;;;;;;;22.10;99.90;;;;;;5028367;28;19956;-60
2023/02/07 12:53:08;;;;;;;;;;;21.90;99.90;;;;;;5028144;28;19913;-60
2023/02/07 12:55:53;;;;;;;;;;;21.80;99.90;;;;;;5028237;28;19952;-59
2023/02/07 12:58:37;;;;;;;;;;;21.60;99.90;;;;;;5025476;28;20296;-60
2023/02/07 13:01:07;;;;;;;;;;;21.50;99.90;;;;;;5027564;28;19921;-60
2023/02/07 13:03:41;;;;;;;;;;;21.40;99.90;;;;;;5028248;28;19909;-60
2023/02/07 13:06:30;;;;;;;;;;;21.40;99.90;;;;;;5028304;28;20069;-66
2023/02/07 13:08:59;;;;;;;;;;;21.40;99.90;;;;;;5017814;28;19917;-62
2023/02/07 13:11:44;;;;;;;;;;;21.40;99.90;;;;;;5028025;28;20329;-65
2023/02/07 13:14:23;;;;;;;;;;;21.50;99.90;;;;;;5025071;28;20018;-65
2023/02/07 13:17:12;;;;;;;;;;;21.50;99.90;;;;;;5024833;28;20023;-60
2023/02/07 13:19:52;;;;;;;;;;;21.40;99.90;;;;;;5026557;28;19913;-61
2023/02/07 13:22:24;;;;;;;;;;;21.30;99.90;;;;;;5027083;28;19917;-66
2023/02/07 13:24:51;;;;;;;;;;;21.10;99.90;;;;;;5028282;28;19906;-65
2023/02/07 13:27:19;;;;;;;;;;;21.10;99.90;;;;;;5027441;28;19909;-60
2023/02/07 13:29:47;;;;;;;;;;;20.90;99.90;;;;;;5025140;28;20119;-62
2023/02/07 13:32:18;;;;;;;;;;;20.90;99.90;;;;;;5025322;28;19913;-60
2023/02/07 13:34:47;;;;;;;;;;;20.80;99.90;;;;;;5029568;28;20387;-66
2023/02/07 13:37:15;;;;;;;;;;;20.80;99.90;;;;;;5027307;28;19912;-62
2023/02/07 13:40:12;;;;;;;;;;;20.80;99.90;;;;;;5029089;28;19929;-66
2023/02/07 13:42:46;;;;;;;;;;;20.70;99.90;;;;;;5028505;28;19909;-66
2023/02/07 13:45:20;;;;;;;;;;;20.80;99.90;;;;;;5027211;28;19924;-60
2023/02/07 13:47:54;;;;;;;;;;;20.70;99.90;;;;;;5029879;28;19999;-65
2023/02/07 13:50:30;;;;;;;;;;;20.70;99.90;;;;;;5025148;28;19923;-63
2023/02/07 13:53:15;;;;;;;;;;;20.80;99.90;;;;;;5029861;28;19908;-62
2023/02/07 13:55:42;;;;;;;;;;;20.80;99.90;;;;;;5027927;28;19916;-66
2023/02/07 14:01:16;;;;;;;;;;;20.90;99.90;;;;;;5026679;28;19927;-61
2023/02/07 14:03:45;;;;;;;;;;;20.90;99.90;;;;;;5026429;28;19917;-60
2023/02/07 14:06:16;;;;;;;;;;;21.00;99.90;;;;;;5025460;28;20038;-62
2023/02/07 14:08:43;;;;;;;;;;;21.00;99.90;;;;;;5029124;28;19923;-61
2023/02/07 14:11:27;;;;;;;;;;;21.10;99.90;;;;;;5029761;28;19951;-61
2023/02/07 14:14:02;;;;;;;;;;;21.10;99.90;;;;;;5028777;28;19908;-61
2023/02/07 14:16:49;;;;;;;;;;;21.10;99.90;;;;;;5028686;28;19955;-60
2023/02/07 14:19:36;;;;;;;;;;;21.10;99.90;;;;;;5025829;28;19920;-59
2023/02/07 14:22:15;;;;;;;;;;;21.10;99.90;;;;;;5027317;28;19995;-62
2023/02/07 14:24:59;;;;;;;;;;;21.10;99.90;;;;;;5028022;28;19909;-58
2023/02/07 14:27:33;;;;;;;;;;;21.10;99.90;;;;;;5026325;28;19940;-62
2023/02/07 14:29:59;;;;;;;;;;;21.20;99.90;;;;;;5011338;28;19955;-66
2023/02/07 14:32:29;;;;;;;;;;;21.20;99.90;;;;;;5029242;28;19916;-61
2023/02/07 14:35:13;;;;;;;;;;;21.20;99.90;;;;;;5028822;28;20297;-60
2023/02/07 14:37:45;;;;;;;;;;;21.20;99.90;;;;;;5028763;28;20365;-65